Time;durP1;ratioP1;P1;durP2;ratioP2;P2;SDS_P1;SDS_P2;PMS_P1;PMS_P2;Temp;Humidity;BMP_temperature;BMP_pressure;BME280_temperature;BME280_humidity;BME280_pressure;Samples;Min_cycle;Max_cycle;Signal;HPM_P1;HPM_P2
2023/02/03 00:00:27;;;;;;;;;;;;;;;;;;4408650;32;20130;-73
2023/02/03 00:02:53;;;;;;;22.27;3.25;;;;;;;;;;4406430;32;19982;-72
2023/02/03 00:05:18;;;;;;;;;;;;;;;;;;4408716;32;20039;-73
2023/02/03 00:07:43;;;;;;;25.67;3.70;;;;;;;;;;4408296;32;19993;-73
2023/02/03 00:10:09;;;;;;;20.25;5.15;;;;;;;;;;4422435;32;20087;-73
2023/02/03 00:12:34;;;;;;;21.23;3.95;;;;;;;;;;4423412;32;20052;-72
2023/02/03 00:14:59;;;;;;;;;;;;;;;;;;4422285;32;20081;-73
2023/02/03 00:17:24;;;;;;;17.17;3.85;;;;;;;;;;4420366;32;19937;-72
2023/02/03 00:19:49;;;;;;;;;;;;;;;;;;4419620;32;20134;-73
2023/02/03 00:22:14;;;;;;;17.25;3.72;;;;;;;;;;4407075;32;19975;-72
2023/02/03 00:24:40;;;;;;;;;;;;;;;;;;4413983;32;20163;-73
2023/02/03 00:27:05;;;;;;;20.88;3.87;;;;;;;;;;4419955;32;19970;-73
2023/02/03 00:29:30;;;;;;;19.02;3.28;;;;;;;;;;4417256;32;20042;-72
2023/02/03 00:31:57;;;;;;;18.95;4.22;;;;;;;;;;4420442;32;20038;-73
2023/02/03 00:34:26;;;;;;;22.02;4.22;;;;;;;;;;4422856;32;20363;-73
2023/02/03 00:36:51;;;;;;;20.98;4.07;;;;;;;;;;4412295;32;20064;-74
2023/02/03 00:39:16;;;;;;;;;;;;;;;;;;4415950;32;20038;-72
2023/02/03 00:41:41;;;;;;;12.63;3.92;;;;;;;;;;4421038;32;20259;-72
2023/02/03 00:44:07;;;;;;;14.63;3.50;;;;;;;;;;4421375;32;20057;-71
2023/02/03 00:46:35;;;;;;;15.55;3.62;;;;;;;;;;4419762;32;20082;-73
2023/02/03 00:49:01;;;;;;;23.48;3.90;;;;;;;;;;4419649;32;20129;-72
2023/02/03 00:51:26;;;;;;;15.05;4.30;;;;;;;;;;4422519;32;20037;-72
2023/02/03 00:53:51;;;;;;;;;;;;;;;;;;4423001;32;20052;-72
2023/02/03 00:56:16;;;;;;;21.75;4.40;;;;;;;;;;4420226;32;19936;-72
2023/02/03 00:58:42;;;;;;;;;;;;;;;;;;4422824;32;20549;-72
2023/02/03 01:01:07;;;;;;;20.88;3.83;;;;;;;;;;4419481;32;19991;-72
2023/02/03 01:03:32;;;;;;;;;;;;;;;;;;4422911;32;20034;-71
2023/02/03 01:06:07;;;;;;;19.37;3.40;;;;;;;;;;4422110;32;19978;-72
2023/02/03 01:08:32;;;;;;;19.98;3.33;;;;;;;;;;4417242;32;20056;-73
2023/02/03 01:10:57;;;;;;;;;;;;;;;;;;4422364;32;20096;-73
2023/02/03 01:13:22;;;;;;;16.45;3.72;;;;;;;;;;4418951;32;19997;-73
2023/02/03 01:15:47;;;;;;;;;;;;;;;;;;4422164;32;20125;-73
2023/02/03 01:18:13;;;;;;;16.95;2.85;;;;;;;;;;4420038;32;19951;-73
2023/02/03 01:20:38;;;;;;;;;;;;;;;;;;4422161;32;20156;-73
2023/02/03 01:23:03;;;;;;;14.52;3.47;;;;;;;;;;4421078;32;19933;-72
2023/02/03 01:25:28;;;;;;;18.58;3.60;;;;;;;;;;4420846;32;20061;-73
2023/02/03 01:27:53;;;;;;;;;;;;;;;;;;4413346;32;20416;-72
2023/02/03 01:30:19;;;;;;;16.92;3.78;;;;;;;;;;4406270;32;19975;-74
2023/02/03 01:32:44;;;;;;;;;;;;;;;;;;4413618;32;20539;-73
2023/02/03 01:35:09;;;;;;;16.40;3.42;;;;;;;;;;4421084;32;19988;-73
2023/02/03 01:37:34;;;;;;;;;;;;;;;;;;4419275;32;20160;-72
2023/02/03 01:39:59;;;;;;;9.32;2.67;;;;;;;;;;4405989;32;20282;-72
2023/02/03 01:42:24;;;;;;;;;;;;;;;;;;4406990;32;20148;-73
2023/02/03 01:44:50;;;;;;;15.23;3.50;;;;;;;;;;4406481;32;19977;-73
2023/02/03 01:47:22;;;;;;;11.80;3.03;;;;;;;;;;4406169;32;20198;-73
2023/02/03 01:49:51;;;;;;;16.55;3.75;;;;;;;;;;4405319;32;20027;-73
2023/02/03 01:52:17;;;;;;;12.88;3.33;;;;;;;;;;4405848;32;20060;-74
2023/02/03 01:54:42;;;;;;;;;;;;;;;;;;4404102;32;20050;-73
2023/02/03 01:57:18;;;;;;;17.10;3.45;;;;;;;;;;4405831;32;19938;-72
2023/02/03 01:59:43;;;;;;;14.27;2.78;;;;;;;;;;4406870;32;20090;-72
2023/02/03 02:02:08;;;;;;;;;;;;;;;;;;4405180;32;20092;-73
2023/02/03 02:04:41;;;;;;;17.48;3.25;;;;;;;;;;4404689;32;19953;-73
2023/02/03 02:07:07;;;;;;;17.98;3.30;;;;;;;;;;4406343;32;20030;-73
2023/02/03 02:09:32;;;;;;;;;;;;;;;;;;4420529;32;20079;-73
2023/02/03 02:11:57;;;;;;;20.45;3.05;;;;;;;;;;4418700;32;19974;-73
2023/02/03 02:14:22;;;;;;;;;;;;;;;;;;4420324;32;20194;-72
2023/02/03 02:16:58;;;;;;;13.27;2.97;;;;;;;;;;4421987;32;19937;-72
2023/02/03 02:19:29;;;;;;;16.50;3.70;;;;;;;;;;4420298;32;20152;-71
2023/02/03 02:22:08;;;;;;;13.50;3.42;;;;;;;;;;4419661;32;20029;-72
2023/02/03 02:24:53;;;;;;;9.18;2.75;;;;;;;;;;4420304;32;20046;-72
2023/02/03 02:27:37;;;;;;;11.43;2.70;;;;;;;;;;4421536;32;20026;-72
2023/02/03 02:30:16;;;;;;;10.77;2.80;;;;;;;;;;4419827;32;20110;-72
2023/02/03 02:33:05;;;;;;;18.05;3.72;;;;;;;;;;4406599;32;20455;-73
2023/02/03 02:35:49;;;;;;;11.20;2.65;;;;;;;;;;4396522;32;20081;-72
2023/02/03 02:38:19;;;;;;;15.02;3.35;;;;;;;;;;4413653;32;20030;-71
2023/02/03 02:40:52;;;;;;;10.70;2.60;;;;;;;;;;4420633;32;20031;-72
2023/02/03 02:43:19;;;;;;;13.68;3.40;;;;;;;;;;4422166;32;20033;-73
2023/02/03 02:45:47;;;;;;;19.12;3.87;;;;;;;;;;4416562;32;20034;-72
2023/02/03 02:48:25;;;;;;;14.70;3.42;;;;;;;;;;4411108;32;20420;-73
2023/02/03 02:50:52;;;;;;;11.95;2.78;;;;;;;;;;4405163;32;20097;-72
2023/02/03 02:53:19;;;;;;;6.35;2.50;;;;;;;;;;4411317;32;20355;-72
2023/02/03 02:55:45;;;;;;;13.38;3.30;;;;;;;;;;4411389;32;20034;-72
2023/02/03 02:58:10;;;;;;;;;;;;;;;;;;4422866;32;20049;-73
2023/02/03 03:00:35;;;;;;;15.90;3.15;;;;;;;;;;4421874;32;19999;-72
2023/02/03 03:03:00;;;;;;;;;;;;;;;;;;4423362;32;20030;-74
2023/02/03 03:05:26;;;;;;;9.38;2.50;;;;;;;;;;4409619;32;20350;-72
2023/02/03 03:07:56;;;;;;;17.08;3.92;;;;;;;;;;4406491;32;20490;-72
2023/02/03 03:10:25;;;;;;;9.20;3.00;;;;;;;;;;4407306;32;20092;-72
2023/02/03 03:12:56;;;;;;;9.95;3.08;;;;;;;;;;4407216;32;20403;-72
2023/02/03 03:15:23;;;;;;;16.30;3.10;;;;;;;;;;4406206;32;20079;-73
2023/02/03 03:17:52;;;;;;;16.08;3.53;;;;;;;;;;4406071;32;20095;-72
2023/02/03 03:20:20;;;;;;;11.60;2.90;;;;;;;;;;4407145;32;20046;-72
2023/02/03 03:22:47;;;;;;;13.95;2.70;;;;;;;;;;4405571;32;20064;-73
2023/02/03 03:25:19;;;;;;;13.05;2.92;;;;;;;;;;4419230;32;20325;-73
2023/02/03 03:27:49;;;;;;;8.52;2.50;;;;;;;;;;4421933;32;20068;-74
2023/02/03 03:30:21;;;;;;;14.63;2.83;;;;;;;;;;4422584;32;20128;-73
2023/02/03 03:32:46;;;;;;;15.18;3.90;;;;;;;;;;4423909;32;20037;-72
2023/02/03 03:35:11;;;;;;;;;;;;;;;;;;4422524;32;20442;-73
2023/02/03 03:37:39;;;;;;;10.93;2.45;;;;;;;;;;4422449;32;20293;-71
2023/02/03 03:40:09;;;;;;;10.52;2.70;;;;;;;;;;4422509;32;20041;-72
2023/02/03 03:42:47;;;;;;;13.50;3.37;;;;;;;;;;4420721;32;20415;-72
2023/02/03 03:45:23;;;;;;;9.27;2.28;;;;;;;;;;4422359;32;20037;-72
2023/02/03 03:47:58;;;;;;;16.87;4.07;;;;;;;;;;4423699;32;20045;-73
2023/02/03 03:50:31;;;;;;;15.68;3.28;;;;;;;;;;4420897;32;20442;-73
2023/02/03 03:52:58;;;;;;;19.08;3.25;;;;;;;;;;4421971;32;20030;-73
2023/02/03 03:55:23;;;;;;;13.07;2.85;;;;;;;;;;4421735;32;20090;-72
2023/02/03 03:57:48;;;;;;;;;;;;;;;;;;4421708;32;20215;-72
2023/02/03 04:00:18;;;;;;;15.13;2.50;;;;;;;;;;4423470;32;19942;-72
2023/02/03 04:02:45;;;;;;;12.35;2.78;;;;;;;;;;4421661;32;20145;-72
2023/02/03 04:05:11;;;;;;;13.57;3.42;;;;;;;;;;4421809;32;20400;-72
2023/02/03 04:07:36;;;;;;;;;;;;;;;;;;4421981;32;20033;-71
2023/02/03 04:10:03;;;;;;;17.12;2.42;;;;;;;;;;4420501;32;19978;-72
2023/02/03 04:12:28;;;;;;;14.25;2.90;;;;;;;;;;4422291;32;20126;-73
2023/02/03 04:14:53;;;;;;;;;;;;;;;;;;4423670;32;20079;-72
2023/02/03 04:17:19;;;;;;;16.08;3.37;;;;;;;;;;4421853;32;19944;-72
2023/02/03 04:19:44;;;;;;;;;;;;;;;;;;4422760;32;20133;-73
2023/02/03 04:22:09;;;;;;;17.67;4.45;;;;;;;;;;4422533;32;19937;-73
2023/02/03 04:24:34;;;;;;;15.80;2.65;;;;;;;;;;4421821;32;20072;-73
2023/02/03 04:26:59;;;;;;;12.37;2.60;;;;;;;;;;4422636;32;20037;-73
2023/02/03 04:29:25;;;;;;;13.82;3.33;;;;;;;;;;4423546;32;20448;-71
2023/02/03 04:31:50;;;;;;;;;;;;;;;;;;4424101;32;20402;-71
2023/02/03 04:34:15;;;;;;;13.13;3.70;;;;;;;;;;4420248;32;19967;-72
2023/02/03 04:36:40;;;;;;;;;;;;;;;;;;4421601;32;20524;-72
2023/02/03 04:39:05;;;;;;;17.92;2.75;;;;;;;;;;4422192;32;19975;-73
2023/02/03 04:41:30;;;;;;;;;;;;;;;;;;4421476;32;20030;-72
2023/02/03 04:43:56;;;;;;;13.23;3.95;;;;;;;;;;4419766;32;19945;-71
2023/02/03 04:46:21;;;;;;;;;;;;;;;;;;4422555;32;20121;-71
2023/02/03 04:48:46;;;;;;;16.95;3.25;;;;;;;;;;4419830;32;19983;-72
2023/02/03 04:51:11;;;;;;;10.23;2.55;;;;;;;;;;4420594;32;20416;-71
2023/02/03 04:53:37;;;;;;;13.73;2.50;;;;;;;;;;4419722;32;20057;-72
2023/02/03 04:56:02;;;;;;;;;;;;;;;;;;4421234;32;20038;-73
2023/02/03 04:58:27;;;;;;;13.93;2.97;;;;;;;;;;4420488;32;20309;-72
2023/02/03 05:00:52;;;;;;;;;;;;;;;;;;4419416;32;20118;-72
2023/02/03 05:03:17;;;;;;;11.88;3.05;;;;;;;;;;4419600;32;19941;-73
2023/02/03 05:05:42;;;;;;;;;;;;;;;;;;4421690;32;20030;-72
2023/02/03 05:08:07;;;;;;;14.68;3.67;;;;;;;;;;4419482;32;19963;-72
2023/02/03 05:10:33;;;;;;;14.98;3.45;;;;;;;;;;4421061;32;20060;-73
2023/02/03 05:12:58;;;;;;;;;;;;;;;;;;4421211;32;20022;-72
2023/02/03 05:15:23;;;;;;;14.05;3.20;;;;;;;;;;4419427;32;19933;-74
2023/02/03 05:17:48;;;;;;;;;;;;;;;;;;4420779;32;20130;-71
2023/02/03 05:20:13;;;;;;;13.82;3.20;;;;;;;;;;4421753;32;19933;-72
2023/02/03 05:22:38;;;;;;;9.75;2.42;;;;;;;;;;4421276;32;20062;-72
2023/02/03 05:25:04;;;;;;;;;;;;;;;;;;4422128;32;20086;-73
2023/02/03 05:27:29;;;;;;;11.05;2.72;;;;;;;;;;4420334;32;20334;-73
2023/02/03 05:29:54;;;;;;;;;;;;;;;;;;4420533;32;20146;-72
2023/02/03 05:32:19;;;;;;;21.42;4.15;;;;;;;;;;4421502;32;19949;-73
2023/02/03 05:34:45;;;;;;;;;;;;;;;;;;4420778;32;20443;-74
2023/02/03 05:37:10;;;;;;;16.23;2.90;;;;;;;;;;4420673;32;19968;-73
2023/02/03 05:39:35;;;;;;;;;;;;;;;;;;4422347;32;20203;-73
2023/02/03 05:42:02;;;;;;;15.48;3.97;;;;;;;;;;4418905;32;20040;-73
2023/02/03 05:44:27;;;;;;;22.62;3.22;;;;;;;;;;4419978;32;20125;-73
2023/02/03 05:46:52;;;;;;;;;;;;;;;;;;4421897;32;20405;-73
2023/02/03 05:49:18;;;;;;;18.17;3.30;;;;;;;;;;4419258;32;20322;-72
2023/02/03 05:51:44;;;;;;;16.33;3.50;;;;;;;;;;4421752;32;20034;-73
2023/02/03 05:54:09;;;;;;;;;;;;;;;;;;4421807;32;20077;-72
2023/02/03 05:56:34;;;;;;;16.10;2.58;;;;;;;;;;4419967;32;19970;-72
2023/02/03 05:59:00;;;;;;;14.43;2.83;;;;;;;;;;4421871;32;20034;-72
2023/02/03 06:01:25;;;;;;;10.38;2.67;;;;;;;;;;4419920;32;20068;-72
2023/02/03 06:03:50;;;;;;;;;;;;;;;;;;4421593;32;20034;-72
2023/02/03 06:06:16;;;;;;;11.68;2.55;;;;;;;;;;4420251;32;19971;-72
2023/02/03 06:08:42;;;;;;;13.05;3.10;;;;;;;;;;4420506;32;20141;-72
2023/02/03 06:11:07;;;;;;;;;;;;;;;;;;4422303;32;20061;-71
2023/02/03 06:13:32;;;;;;;12.10;3.05;;;;;;;;;;4421312;32;19966;-71
2023/02/03 06:15:57;;;;;;;;;;;;;;;;;;4420656;32;20141;-73
2023/02/03 06:18:23;;;;;;;13.98;3.42;;;;;;;;;;4422528;32;19937;-73
2023/02/03 06:20:48;;;;;;;19.12;3.75;;;;;;;;;;4423144;32;20415;-73
2023/02/03 06:23:15;;;;;;;;;;;;;;;;;;4421978;32;20037;-72
2023/02/03 06:25:41;;;;;;;18.75;3.90;;;;;;;;;;4421892;32;20304;-73
2023/02/03 06:28:06;;;;;;;;;;;;;;;;;;4412852;32;20049;-73
2023/02/03 06:30:31;;;;;;;15.95;2.70;;;;;;;;;;4409285;32;19945;-72
2023/02/03 06:32:56;;;;;;;;;;;;;;;;;;4409567;32;20156;-72
2023/02/03 06:35:21;;;;;;;14.68;3.03;;;;;;;;;;4418260;32;19941;-72
2023/02/03 06:37:46;;;;;;;;;;;;;;;;;;4421337;32;20178;-73
2023/02/03 06:40:12;;;;;;;15.35;4.03;;;;;;;;;;4419787;32;19942;-72
2023/02/03 06:42:37;;;;;;;13.40;3.08;;;;;;;;;;4413603;32;20118;-73
2023/02/03 06:45:02;;;;;;;;;;;;;;;;;;4413456;32;20095;-73
2023/02/03 06:47:27;;;;;;;13.02;3.17;;;;;;;;;;4423636;32;19944;-73
2023/02/03 06:49:53;;;;;;;20.40;3.65;;;;;;;;;;4422805;32;20025;-73
2023/02/03 06:52:18;;;;;;;;;;;;;;;;;;4414253;32;20037;-72
2023/02/03 06:54:43;;;;;;;22.98;3.92;;;;;;;;;;4421411;32;19971;-72
2023/02/03 06:57:08;;;;;;;16.60;3.50;;;;;;;;;;4423084;32;20053;-72
2023/02/03 06:59:33;;;;;;;;;;;;;;;;;;4420471;32;20112;-72
2023/02/03 07:01:58;;;;;;;10.40;2.65;;;;;;;;;;4423399;32;19937;-73
2023/02/03 07:04:24;;;;;;;;;;;;;;;;;;4423356;32;20152;-72
2023/02/03 07:06:49;;;;;;;13.15;3.05;;;;;;;;;;4420916;32;19937;-73
2023/02/03 07:09:14;;;;;;;;;;;;;;;;;;4418219;32;20125;-73
2023/02/03 07:11:39;;;;;;;19.30;4.70;;;;;;;;;;4424630;32;19997;-72
2023/02/03 07:14:04;;;;;;;13.43;2.85;;;;;;;;;;4421489;32;20033;-72
2023/02/03 07:16:30;;;;;;;11.48;3.08;;;;;;;;;;4420722;32;20062;-73
2023/02/03 07:18:55;;;;;;;;;;;;;;;;;;4422587;32;20057;-71
2023/02/03 07:21:20;;;;;;;12.85;3.70;;;;;;;;;;4421539;32;19938;-71
2023/02/03 07:23:45;;;;;;;;;;;;;;;;;;4425109;32;20058;-73
2023/02/03 07:26:11;;;;;;;16.87;3.30;;;;;;;;;;4423137;32;19963;-72
2023/02/03 07:28:36;;;;;;;17.87;3.42;;;;;;;;;;4422444;32;20079;-73
2023/02/03 07:31:03;;;;;;;18.35;4.35;;;;;;;;;;4423725;32;20049;-73
2023/02/03 07:33:29;;;;;;;12.40;3.17;;;;;;;;;;4421129;32;20075;-73
2023/02/03 07:35:54;;;;;;;;;;;;;;;;;;4422088;32;20046;-73
2023/02/03 07:38:19;;;;;;;12.52;3.28;;;;;;;;;;4421164;32;19941;-74
2023/02/03 07:40:45;;;;;;;17.58;3.40;;;;;;;;;;4407825;32;20057;-72
2023/02/03 07:43:10;;;;;;;;;;;;;;;;;;4407800;32;20382;-72
2023/02/03 07:45:35;;;;;;;13.57;2.50;;;;;;;;;;4406938;32;19994;-73
2023/02/03 07:48:00;;;;;;;;;;;;;;;;;;4406147;32;20523;-73
2023/02/03 07:50:26;;;;;;;16.37;3.17;;;;;;;;;;4406562;32;19966;-73
2023/02/03 07:52:51;;;;;;;;;;;;;;;;;;4407962;32;20138;-71
2023/02/03 07:55:17;;;;;;;12.80;3.10;;;;;;;;;;4411848;32;19996;-74
2023/02/03 07:57:44;;;;;;;14.95;3.90;;;;;;;;;;4420121;32;20404;-73
2023/02/03 08:00:10;;;;;;;13.20;3.30;;;;;;;;;;4422750;32;20041;-72
2023/02/03 08:02:35;;;;;;;16.87;3.30;;;;;;;;;;4422378;32;20033;-72
2023/02/03 08:05:00;;;;;;;;;;;;;;;;;;4422581;32;20064;-72
2023/02/03 08:07:26;;;;;;;13.48;3.35;;;;;;;;;;4421096;32;19979;-72
2023/02/03 08:09:51;;;;;;;17.25;3.80;;;;;;;;;;4423522;32;20075;-72
2023/02/03 08:12:16;;;;;;;11.43;2.67;;;;;;;;;;4423124;32;20084;-72
2023/02/03 08:14:41;;;;;;;;;;;;;;;;;;4422612;32;20033;-72
2023/02/03 08:17:06;;;;;;;13.65;3.22;;;;;;;;;;4421242;32;19968;-73
2023/02/03 08:19:32;;;;;;;12.75;3.28;;;;;;;;;;4407665;32;20301;-73
2023/02/03 08:21:58;;;;;;;;;;;;;;;;;;4408812;32;20092;-73
2023/02/03 08:24:23;;;;;;;16.90;3.20;;;;;;;;;;4407295;32;19938;-73
2023/02/03 08:26:48;;;;;;;11.65;2.67;;;;;;;;;;4410316;32;20030;-73
2023/02/03 08:29:14;;;;;;;;;;;;;;;;;;4413983;32;20069;-73
2023/02/03 08:31:40;;;;;;;14.50;3.50;;;;;;;;;;4410917;32;19933;-73
2023/02/03 08:34:06;;;;;;;14.00;2.97;;;;;;;;;;4419976;32;20125;-74
2023/02/03 08:36:31;;;;;;;;;;;;;;;;;;4421345;32;20041;-73
2023/02/03 08:38:56;;;;;;;10.02;2.87;;;;;;;;;;4420710;32;19977;-74
2023/02/03 08:41:21;;;;;;;16.02;4.03;;;;;;;;;;4422001;32;20367;-74
2023/02/03 08:43:46;;;;;;;;;;;;;;;;;;4421584;32;20026;-74
2023/02/03 08:46:12;;;;;;;17.00;3.62;;;;;;;;;;4421052;32;19945;-72
2023/02/03 08:48:37;;;;;;;;;;;;;;;;;;4424309;32;20033;-72
2023/02/03 08:51:08;;;;;;;21.75;3.65;;;;;;;;;;4420891;32;19936;-73
2023/02/03 08:53:33;;;;;;;16.73;3.50;;;;;;;;;;4423560;32;20057;-73
2023/02/03 08:55:59;;;;;;;;;;;;;;;;;;4419615;32;20053;-74
2023/02/03 08:58:24;;;;;;;16.92;3.47;;;;;;;;;;4418956;32;20259;-73
2023/02/03 09:00:51;;;;;;;;;;;;;;;;;;4419202;32;20188;-73
2023/02/03 09:03:17;;;;;;;18.83;3.20;;;;;;;;;;4420334;32;19929;-74
2023/02/03 09:05:42;;;;;;;;;;;;;;;;;;4419686;32;20136;-74
2023/02/03 09:08:07;;;;;;;16.62;2.97;;;;;;;;;;4420962;32;19945;-74
2023/02/03 09:10:32;;;;;;;17.05;3.12;;;;;;;;;;4421064;32;20329;-74
2023/02/03 09:12:57;;;;;;;16.27;3.15;;;;;;;;;;4421240;32;20026;-72
2023/02/03 09:15:23;;;;;;;;;;;;;;;;;;4422351;32;20026;-73
2023/02/03 09:17:48;;;;;;;11.23;3.08;;;;;;;;;;4421619;32;19982;-72
2023/02/03 09:20:13;;;;;;;23.27;6.03;;;;;;;;;;4421681;32;20416;-73
2023/02/03 09:22:38;;;;;;;;;;;;;;;;;;4422401;32;20433;-73
2023/02/03 09:25:05;;;;;;;13.68;3.33;;;;;;;;;;4421076;32;19947;-72
2023/02/03 09:27:30;;;;;;;21.70;3.05;;;;;;;;;;4418572;32;20468;-73
2023/02/03 09:29:57;;;;;;;;;;;;;;;;;;4407523;32;20111;-73
2023/02/03 09:32:22;;;;;;;7.87;3.22;;;;;;;;;;4409644;32;19951;-73
2023/02/03 09:34:47;;;;;;;;;;;;;;;;;;4411196;32;20046;-73
2023/02/03 09:37:13;;;;;;;14.60;3.12;;;;;;;;;;4405914;32;19959;-73
2023/02/03 09:39:38;;;;;;;;;;;;;;;;;;4410705;32;20037;-72
2023/02/03 09:42:03;;;;;;;16.73;3.92;;;;;;;;;;4420641;32;20361;-73
2023/02/03 09:44:28;;;;;;;;;;;;;;;;;;4419446;32;20134;-72
2023/02/03 09:46:55;;;;;;;14.95;3.28;;;;;;;;;;4421040;32;20000;-72
2023/02/03 09:49:39;;;;;;;16.60;4.15;;;;;;;;;;4422200;32;20157;-73
2023/02/03 09:52:19;;;;;;;18.60;3.67;;;;;;;;;;4421271;32;20034;-73
2023/02/03 09:55:03;;;;;;;12.52;3.95;;;;;;;;;;4420134;32;20078;-73
2023/02/03 09:57:36;;;;;;;13.85;3.15;;;;;;;;;;4420437;32;20101;-73
2023/02/03 10:00:09;;;;;;;14.50;4.32;;;;;;;;;;4420521;32;20034;-73
2023/02/03 10:02:34;;;;;;;19.00;3.53;;;;;;;;;;4420617;32;20034;-73
2023/02/03 10:04:59;;;;;;;;;;;;;;;;;;4419711;32;20088;-73
2023/02/03 10:07:24;;;;;;;17.15;4.20;;;;;;;;;;4419647;32;19948;-73
2023/02/03 10:10:09;;;;;;;14.07;3.15;;;;;;;;;;4421363;32;20411;-73
2023/02/03 10:12:44;;;;;;;10.60;2.65;;;;;;;;;;4420156;32;20085;-73
2023/02/03 10:15:26;;;;;;;11.02;3.30;;;;;;;;;;4421810;32;20026;-73
2023/02/03 10:18:03;;;;;;;14.77;2.72;;;;;;;;;;4419934;32;20048;-73
2023/02/03 10:20:34;;;;;;;11.90;3.58;;;;;;;;;;4420026;32;20034;-73
2023/02/03 10:23:03;;;;;;;13.18;3.10;;;;;;;;;;4420280;32;20025;-73
2023/02/03 10:25:42;;;;;;;11.98;2.90;;;;;;;;;;4419838;32;20091;-73
2023/02/03 10:28:20;;;;;;;8.88;2.60;;;;;;;;;;4421706;32;20123;-73
2023/02/03 10:30:48;;;;;;;16.83;2.85;;;;;;;;;;4421308;32;20470;-75
2023/02/03 10:33:17;;;;;;;12.85;2.87;;;;;;;;;;4419758;32;20415;-72
2023/02/03 10:35:45;;;;;;;8.43;2.50;;;;;;;;;;4420205;32;20087;-74
2023/02/03 10:38:13;;;;;;;8.40;3.83;;;;;;;;;;4418779;32;20056;-73
2023/02/03 10:40:38;;;;;;;11.27;3.12;;;;;;;;;;4421078;32;20030;-73
2023/02/03 10:45:47;;;;;;;17.48;3.37;;;;;;;;;;4420066;32;19940;-73
2023/02/03 10:48:12;;;;;;;;;;;;;;;;;;4421152;32;20026;-73
2023/02/03 10:50:41;;;;;;;14.87;3.37;;;;;;;;;;4420045;32;19941;-73
2023/02/03 10:53:25;;;;;;;13.93;3.25;;;;;;;;;;4419808;32;20117;-72
2023/02/03 10:56:00;;;;;;;7.37;2.90;;;;;;;;;;4419521;32;20050;-73
2023/02/03 10:58:26;;;;;;;13.55;2.90;;;;;;;;;;4420236;32;20034;-73
2023/02/03 11:01:12;;;;;;;9.30;3.35;;;;;;;;;;4420729;32;20026;-73
2023/02/03 11:03:39;;;;;;;8.32;2.85;;;;;;;;;;4418530;32;20055;-73
2023/02/03 11:06:15;;;;;;;12.88;3.37;;;;;;;;;;4425689;32;20030;-74
2023/02/03 11:08:42;;;;;;;8.98;3.35;;;;;;;;;;4408587;32;20432;-72
2023/02/03 11:11:08;;;;;;;14.35;3.42;;;;;;;;;;4407443;32;20030;-73
2023/02/03 11:13:34;;;;;;;11.10;3.50;;;;;;;;;;4406973;32;20083;-73
2023/02/03 11:15:59;;;;;;;;;;;;;;;;;;4406049;32;20328;-73
2023/02/03 11:18:31;;;;;;;11.27;3.47;;;;;;;;;;4406428;32;19949;-73
2023/02/03 11:20:56;;;;;;;9.93;3.42;;;;;;;;;;4407520;32;20026;-73
2023/02/03 11:23:21;;;;;;;;;;;;;;;;;;4407715;32;20495;-72
2023/02/03 11:25:47;;;;;;;13.07;2.83;;;;;;;;;;4406852;32;19937;-72
2023/02/03 11:28:12;;;;;;;;;;;;;;;;;;4407823;32;20160;-72
2023/02/03 11:30:38;;;;;;;11.02;3.30;;;;;;;;;;4405711;32;19971;-73
2023/02/03 11:33:14;;;;;;;11.85;2.97;;;;;;;;;;4405381;32;20368;-72
2023/02/03 11:35:52;;;;;;;9.13;3.00;;;;;;;;;;4411390;32;20042;-73
2023/02/03 11:38:27;;;;;;;7.28;2.42;;;;;;;;;;4423467;32;20090;-72
2023/02/03 11:40:57;;;;;;;13.30;3.10;;;;;;;;;;4420343;32;20083;-72
2023/02/03 11:43:23;;;;;;;11.07;3.00;;;;;;;;;;4421312;32;20117;-72
2023/02/03 11:45:48;;;;;;;;;;;;;;;;;;4422551;32;20021;-72
2023/02/03 11:48:16;;;;;;;11.00;2.87;;;;;;;;;;4420674;32;19978;-72
2023/02/03 11:50:50;;;;;;;13.27;3.08;;;;;;;;;;4418968;32;20064;-72
2023/02/03 11:53:26;;;;;;;13.18;3.42;;;;;;;;;;4420735;32;20026;-73
2023/02/03 11:55:52;;;;;;;6.82;2.62;;;;;;;;;;4418612;32;21455;-73
2023/02/03 11:58:27;;;;;;;8.65;3.17;;;;;;;;;;4407170;32;20060;-73
2023/02/03 12:00:59;;;;;;;12.20;2.92;;;;;;;;;;4406719;32;20038;-72
2023/02/03 12:03:42;;;;;;;10.85;2.95;;;;;;;;;;4407542;32;20057;-71
2023/02/03 12:06:16;;;;;;;11.88;2.87;;;;;;;;;;4410608;32;20038;-72
2023/02/03 12:08:53;;;;;;;10.73;3.10;;;;;;;;;;4422962;32;20083;-72
2023/02/03 12:11:19;;;;;;;7.18;2.75;;;;;;;;;;4421404;32;20400;-73
2023/02/03 12:13:44;;;;;;;;;;;;;;;;;;4417166;32;20023;-72
2023/02/03 12:16:12;;;;;;;15.63;2.80;;;;;;;;;;4406356;32;19985;-72
2023/02/03 12:18:54;;;;;;;12.13;2.83;;;;;;;;;;4406352;32;20118;-72
2023/02/03 12:21:38;;;;;;;8.15;2.83;;;;;;;;;;4409126;32;20454;-73
2023/02/03 12:24:08;;;;;;;7.68;2.60;;;;;;;;;;4424750;32;20443;-72
2023/02/03 12:26:37;;;;;;;9.20;3.22;;;;;;;;;;4421910;32;20022;-72
2023/02/03 12:29:05;;;;;;;7.78;2.80;;;;;;;;;;4421664;32;20042;-71
2023/02/03 12:31:48;;;;;;;12.77;3.17;;;;;;;;;;4420994;32;20134;-74
2023/02/03 12:34:23;;;;;;;9.85;3.05;;;;;;;;;;4421355;32;20034;-72
2023/02/03 12:36:52;;;;;;;8.93;2.55;;;;;;;;;;4419259;32;20037;-72
2023/02/03 12:39:20;;;;;;;11.88;2.80;;;;;;;;;;4420939;32;20087;-72
2023/02/03 12:41:58;;;;;;;12.48;2.85;;;;;;;;;;4422383;32;20029;-73
2023/02/03 12:44:28;;;;;;;9.90;2.53;;;;;;;;;;4419546;32;20026;-73
2023/02/03 12:47:00;;;;;;;11.20;3.08;;;;;;;;;;4420332;32;20093;-72
2023/02/03 12:49:25;;;;;;;10.73;2.45;;;;;;;;;;4421353;32;20029;-72
2023/02/03 12:51:50;;;;;;;;;;;;;;;;;;4421042;32;20091;-73
2023/02/03 12:54:28;;;;;;;12.13;2.45;;;;;;;;;;4416362;32;19953;-73
2023/02/03 12:56:54;;;;;;;10.98;3.67;;;;;;;;;;4410895;32;20101;-73
2023/02/03 12:59:22;;;;;;;11.90;2.40;;;;;;;;;;4406134;32;20046;-72
2023/02/03 13:01:57;;;;;;;9.00;3.08;;;;;;;;;;4417573;32;20034;-72
2023/02/03 13:04:40;;;;;;;11.15;2.53;;;;;;;;;;4420440;32;20043;-73
2023/02/03 13:07:11;;;;;;;9.77;2.72;;;;;;;;;;4419988;32;20026;-73
2023/02/03 13:09:48;;;;;;;13.52;3.62;;;;;;;;;;4418903;32;20052;-74
2023/02/03 13:12:19;;;;;;;8.98;2.58;;;;;;;;;;4420540;32;20355;-74
2023/02/03 13:14:49;;;;;;;9.30;2.97;;;;;;;;;;4422624;32;20086;-73
2023/02/03 13:17:18;;;;;;;7.05;2.85;;;;;;;;;;4421049;32;20025;-73
2023/02/03 13:19:57;;;;;;;12.23;3.62;;;;;;;;;;4419902;32;20046;-73
2023/02/03 13:22:23;;;;;;;8.63;3.03;;;;;;;;;;4419324;32;20387;-73
2023/02/03 13:24:48;;;;;;;;;;;;;;;;;;4421577;32;20033;-73
2023/02/03 13:27:24;;;;;;;13.50;3.47;;;;;;;;;;4419995;32;19945;-73
2023/02/03 13:30:08;;;;;;;11.90;3.15;;;;;;;;;;4420391;32;20049;-73
2023/02/03 13:32:40;;;;;;;12.15;3.33;;;;;;;;;;4419746;32;20038;-73
2023/02/03 13:35:11;;;;;;;10.85;3.37;;;;;;;;;;4419679;32;20038;-73
2023/02/03 13:37:43;;;;;;;9.43;3.22;;;;;;;;;;4420700;32;20038;-73
2023/02/03 13:40:13;;;;;;;10.05;2.90;;;;;;;;;;4422641;32;20112;-73
2023/02/03 13:42:45;;;;;;;12.25;3.40;;;;;;;;;;4410161;32;20366;-73
2023/02/03 13:45:17;;;;;;;16.70;3.95;;;;;;;;;;4406917;32;20082;-74
2023/02/03 13:47:50;;;;;;;13.13;4.15;;;;;;;;;;4405338;32;20046;-75
2023/02/03 13:50:27;;;;;;;17.87;4.12;;;;;;;;;;4405408;32;20076;-75
2023/02/03 13:53:01;;;;;;;16.67;4.75;;;;;;;;;;4404218;32;20034;-75
2023/02/03 13:55:34;;;;;;;14.98;3.72;;;;;;;;;;4405359;32;20066;-74
2023/02/03 13:58:00;;;;;;;16.65;4.50;;;;;;;;;;4418017;32;20058;-74
2023/02/03 14:00:25;;;;;;;;;;;;;;;;;;4420354;32;20075;-74
2023/02/03 14:02:54;;;;;;;12.90;4.93;;;;;;;;;;4419831;32;19944;-75
2023/02/03 14:05:53;;;;;;;13.95;4.18;;;;;;;;;;4418928;32;20049;-75
2023/02/03 14:08:24;;;;;;;17.42;4.55;;;;;;;;;;4402744;32;20482;-75
2023/02/03 14:11:08;;;;;;;18.12;4.50;;;;;;;;;;4419667;32;20458;-76
2023/02/03 14:13:33;;;;;;;22.40;5.62;;;;;;;;;;4403153;32;20035;-76
2023/02/03 14:15:58;;;;;;;;;;;;;;;;;;4419783;32;20063;-75
2023/02/03 14:18:31;;;;;;;15.82;5.00;;;;;;;;;;4419255;32;19988;-74
2023/02/03 14:21:09;;;;;;;13.57;4.45;;;;;;;;;;4420520;32;20107;-75
2023/02/03 14:23:38;;;;;;;13.85;5.32;;;;;;;;;;4419365;32;20060;-76
2023/02/03 14:26:04;;;;;;;28.50;7.03;;;;;;;;;;4420583;32;20075;-76
2023/02/03 14:28:29;;;;;;;;;;;;;;;;;;4417876;32;20057;-75
2023/02/03 14:31:04;;;;;;;26.25;5.75;;;;;;;;;;4419732;32;19975;-75
2023/02/03 14:33:47;;;;;;;25.95;5.10;;;;;;;;;;4411165;32;20129;-75
2023/02/03 14:36:25;;;;;;;16.50;4.75;;;;;;;;;;4414807;32;20102;-74
2023/02/03 14:38:50;;;;;;;23.62;5.55;;;;;;;;;;4420184;32;20065;-74
2023/02/03 14:41:15;;;;;;;;;;;;;;;;;;4422907;32;20050;-74
2023/02/03 14:43:50;;;;;;;25.10;6.15;;;;;;;;;;4422127;32;20014;-74
2023/02/03 14:46:45;;;;;;;25.92;5.50;;;;;;;;;;4422972;32;20424;-73
2023/02/03 14:49:24;;;;;;;17.58;4.37;;;;;;;;;;4408333;32;20496;-74
2023/02/03 14:52:01;;;;;;;17.75;4.55;;;;;;;;;;4407300;32;20026;-73
2023/02/03 14:54:45;;;;;;;18.70;4.22;;;;;;;;;;4407896;32;20091;-74
2023/02/03 14:57:17;;;;;;;14.68;4.43;;;;;;;;;;4408160;32;20075;-72
2023/02/03 14:59:44;;;;;;;17.30;4.80;;;;;;;;;;4407312;32;20023;-75
2023/02/03 15:02:14;;;;;;;18.10;4.57;;;;;;;;;;4405913;32;20026;-74
2023/02/03 15:04:40;;;;;;;14.80;4.62;;;;;;;;;;4407270;32;20027;-73
2023/02/03 15:07:06;;;;;;;;;;;;;;;;;;4407496;32;20030;-73
2023/02/03 15:09:41;;;;;;;20.80;5.70;;;;;;;;;;4406229;32;19944;-73